Time;durP1;ratioP1;P1;durP2;ratioP2;P2;SDS_P1;SDS_P2;PMS_P1;PMS_P2;Temp;Humidity;BMP_temperature;BMP_pressure;BME280_temperature;BME280_humidity;BME280_pressure;Samples;Min_cycle;Max_cycle;Signal;HPM_P1;HPM_P2
2023/01/10 00:00:42;;;;;;;2.67;2.17;;;4.90;99.90;;;;;;6279464;22;20144;-86
2023/01/10 00:03:09;;;;;;;2.17;1.55;;;4.90;99.90;;;;;;6279537;22;20176;-87
2023/01/10 00:05:37;;;;;;;1.80;1.70;;;4.50;99.90;;;;;;6280877;22;20167;-87
2023/01/10 00:08:04;;;;;;;1.05;1.05;;;5.00;99.90;;;;;;6281174;22;20602;-86
2023/01/10 00:10:30;;;;;;;2.08;1.65;;;4.90;99.90;;;;;;6278514;22;20235;-88
2023/01/10 00:15:40;;;;;;;3.58;2.08;;;5.70;99.90;;;;;;6277831;22;20190;-88
2023/01/10 00:18:06;;;;;;;1.57;1.10;;;4.90;99.90;;;;;;6282397;22;20147;-87
2023/01/10 00:20:32;;;;;;;1.50;1.00;;;5.00;99.90;;;;;;6279676;22;20256;-87
2023/01/10 00:22:57;;;;;;;2.40;1.43;;;4.90;99.90;;;;;;6280273;22;20270;-87
2023/01/10 00:25:23;;;;;;;2.87;1.67;;;4.90;99.90;;;;;;6279875;22;20865;-86
2023/01/10 00:27:56;;;;;;;3.70;1.60;;;4.90;99.90;;;;;;6280528;22;20619;-86
2023/01/10 00:30:22;;;;;;;3.05;1.25;;;4.90;99.90;;;;;;6279223;22;20421;-86
2023/01/10 00:32:47;;;;;;;1.50;1.40;;;5.00;99.90;;;;;;6280470;22;20152;-85
2023/01/10 00:35:13;;;;;;;0.70;0.60;;;5.00;99.90;;;;;;6278340;22;20155;-86
2023/01/10 00:37:39;;;;;;;2.13;1.80;;;5.00;99.90;;;;;;6278874;22;20804;-87
2023/01/10 00:40:07;;;;;;;1.57;1.47;;;5.00;99.90;;;;;;6281025;22;20231;-86
2023/01/10 00:45:18;;;;;;;3.90;2.42;;;5.00;99.90;;;;;;6280697;22;20139;-85
2023/01/10 00:47:44;;;;;;;3.00;1.88;;;5.00;99.90;;;;;;6279009;22;20163;-86
2023/01/10 00:50:13;;;;;;;1.43;1.33;;;5.00;99.90;;;;;;6279993;22;20159;-86
2023/01/10 00:52:39;;;;;;;2.13;1.45;;;5.00;99.90;;;;;;6279836;22;20172;-86
2023/01/10 00:55:05;;;;;;;2.03;1.53;;;5.00;99.90;;;;;;6281594;22;20537;-85
2023/01/10 00:57:30;;;;;;;2.03;1.70;;;4.90;99.90;;;;;;6280603;22;20167;-85
2023/01/10 00:59:56;;;;;;;1.90;1.43;;;4.90;99.90;;;;;;6278550;22;20247;-86
2023/01/10 01:02:21;;;;;;;1.97;1.63;;;5.00;99.90;;;;;;6279644;22;20183;-86
2023/01/10 01:04:47;;;;;;;2.20;2.00;;;5.00;99.90;;;;;;6280502;22;20152;-86
2023/01/10 01:07:12;;;;;;;2.40;1.60;;;5.00;99.90;;;;;;6280887;22;20164;-86
2023/01/10 01:10:25;;;;;;;2.30;1.90;;;5.00;99.90;;;;;;6280946;22;20154;-87
2023/01/10 01:12:23;;;;;;;3.20;1.85;;;5.10;99.90;;;;;;6281659;22;20175;-87
2023/01/10 01:14:49;;;;;;;2.63;1.60;;;5.20;99.90;;;;;;6281387;22;20160;-87
2023/01/10 01:17:14;;;;;;;2.53;1.70;;;5.20;99.90;;;;;;6282967;22;20182;-87
2023/01/10 01:19:40;;;;;;;4.63;2.03;;;5.20;99.90;;;;;;6282156;22;20151;-87
2023/01/10 01:22:05;;;;;;;2.00;1.10;;;5.20;99.90;;;;;;6283300;22;20198;-87
2023/01/10 01:24:31;;;;;;;2.13;1.93;;;5.20;99.90;;;;;;6280300;22;20144;-87
2023/01/10 01:26:57;;;;;;;3.27;1.30;;;5.20;99.90;;;;;;6278850;22;20172;-85
2023/01/10 01:29:23;;;;;;;1.40;1.27;;;5.20;99.90;;;;;;6278989;22;20174;-86
2023/01/10 01:31:49;;;;;;;2.50;1.50;;;5.20;99.90;;;;;;6279280;22;20150;-86
2023/01/10 01:34:14;;;;;;;2.90;1.70;;;5.20;99.90;;;;;;6280241;22;20583;-87
2023/01/10 01:36:40;;;;;;;1.53;1.23;;;5.20;99.90;;;;;;6279279;22;20693;-86
2023/01/10 01:39:06;;;;;;;1.13;0.87;;;;;;;;;;6280243;22;20140;-85
2023/01/10 01:44:17;;;;;;;1.73;1.25;;;5.20;99.90;;;;;;6280638;22;20353;-85
2023/01/10 01:47:02;;;;;;;1.30;0.90;;;5.20;99.90;;;;;;6280217;22;20172;-86
2023/01/10 01:49:30;;;;;;;1.40;0.85;;;5.20;99.90;;;;;;6280009;22;20136;-86
2023/01/10 01:52:00;;;;;;;1.33;1.10;;;5.20;99.90;;;;;;6278265;22;20147;-86
2023/01/10 01:54:27;;;;;;;0.70;0.70;;;5.10;99.90;;;;;;6278782;22;20136;-85
2023/01/10 01:57:01;;;;;;;0.80;0.80;;;5.10;99.90;;;;;;6278097;22;20210;-85
2023/01/10 01:59:37;;;;;;;1.05;0.70;;;5.10;99.90;;;;;;6279797;22;20140;-85
2023/01/10 02:02:09;;;;;;;0.70;0.60;;;5.10;99.90;;;;;;6275114;22;20822;-86
2023/01/10 02:04:45;;;;;;;2.05;0.52;;;5.10;99.90;;;;;;6274903;22;20205;-86
2023/01/10 02:07:12;;;;;;;4.65;0.95;;;5.60;99.90;;;;;;6275880;22;20229;-86
2023/01/10 02:09:53;;;;;;;5.97;0.90;;;5.10;99.90;;;;;;6274734;22;20155;-87
2023/01/10 02:12:19;;;;;;;2.38;1.23;;;5.00;99.90;;;;;;6274196;22;20148;-85
2023/01/10 02:14:47;;;;;;;1.07;0.50;;;5.10;99.90;;;;;;6275506;22;20476;-85
2023/01/10 02:17:12;;;;;;;1.17;0.98;;;5.00;99.90;;;;;;6275278;22;20435;-86
2023/01/10 02:19:44;;;;;;;1.63;0.83;;;5.00;99.90;;;;;;6275060;22;20148;-87
2023/01/10 02:22:45;;;;;;;1.05;0.90;;;5.00;99.90;;;;;;6276694;22;20180;-86
2023/01/10 02:25:44;;;;;;;3.22;1.13;;;4.90;99.90;;;;;;6273820;22;20192;-87
2023/01/10 02:28:40;;;;;;;3.65;1.20;;;4.90;99.90;;;;;;6275648;22;20144;-87
2023/01/10 02:31:41;;;;;;;2.85;0.90;;;4.90;99.90;;;;;;6278139;22;20136;-87
2023/01/10 02:35:05;;;;;;;2.03;1.52;;;4.80;99.90;;;;;;6279772;22;20159;-86
2023/01/10 02:37:46;;;;;;;4.68;1.05;;;4.80;99.90;;;;;;6122115;23;20979;-85
2023/01/10 02:40:16;;;;;;;5.90;1.00;;;4.80;99.90;;;;;;6281606;22;20152;-87
2023/01/10 02:43:00;;;;;;;1.30;1.00;;;4.80;99.90;;;;;;6273084;22;20181;-87
2023/01/10 02:45:46;;;;;;;1.92;1.10;;;4.80;99.90;;;;;;6274361;22;20135;-85
2023/01/10 02:48:12;;;;;;;1.60;0.90;;;4.80;99.90;;;;;;6275930;22;20246;-85
2023/01/10 02:50:40;;;;;;;1.83;0.77;;;4.80;99.90;;;;;;6275748;22;20163;-88
2023/01/10 02:53:13;;;;;;;0.98;0.98;;;4.80;99.90;;;;;;6273711;22;20158;-87
2023/01/10 02:56:03;;;;;;;1.60;1.30;;;4.80;99.90;;;;;;6276796;22;20401;-88
2023/01/10 02:58:41;;;;;;;0.88;0.80;;;4.80;99.90;;;;;;6274658;22;20547;-87
2023/01/10 03:01:24;;;;;;;2.00;1.10;;;4.80;99.90;;;;;;6273916;22;20144;-87
2023/01/10 03:04:23;;;;;;;0.93;0.75;;;4.70;99.90;;;;;;6272700;22;20322;-86
2023/01/10 03:06:54;;;;;;;2.25;1.02;;;4.70;99.90;;;;;;6273657;22;20197;-87
2023/01/10 03:09:34;;;;;;;2.50;1.50;;;4.70;99.90;;;;;;6273235;22;20140;-89
2023/01/10 03:12:11;;;;;;;3.42;0.93;;;4.70;99.90;;;;;;6275012;22;20138;-87
2023/01/10 03:14:39;;;;;;;2.95;1.45;;;4.70;99.90;;;;;;6274910;22;20143;-88
2023/01/10 03:17:10;;;;;;;2.38;0.90;;;4.70;99.90;;;;;;6277811;22;20159;-88
2023/01/10 03:19:42;;;;;;;2.10;1.35;;;4.70;99.90;;;;;;6274726;22;20236;-87
2023/01/10 03:22:09;;;;;;;3.22;1.25;;;4.60;99.90;;;;;;6272962;22;20188;-86
2023/01/10 03:24:41;;;;;;;5.90;1.35;;;4.60;99.90;;;;;;6271448;22;20209;-86
2023/01/10 03:27:26;;;;;;;4.95;2.00;;;4.60;99.90;;;;;;6272789;22;21102;-87
2023/01/10 03:30:11;;;;;;;1.98;1.20;;;4.60;99.90;;;;;;6274789;22;20136;-88
2023/01/10 03:32:37;;;;;;;4.72;1.50;;;4.50;99.90;;;;;;6273945;22;20143;-88
2023/01/10 03:35:03;;;;;;;2.60;1.40;;;4.60;99.90;;;;;;6272894;22;20156;-86
2023/01/10 03:37:54;;;;;;;3.70;2.08;;;4.60;99.90;;;;;;6278611;22;20196;-88
2023/01/10 03:40:46;;;;;;;2.22;2.03;;;4.60;99.90;;;;;;6281814;22;20471;-87
2023/01/10 03:46:13;;;;;;;3.13;1.60;;;4.50;99.90;;;;;;6281078;22;20229;-87
2023/01/10 03:48:42;;;;;;;2.60;1.88;;;4.50;99.90;;;;;;6278292;22;20183;-88
2023/01/10 03:51:08;;;;;;;3.35;1.65;;;4.70;99.90;;;;;;6278369;22;20152;-86
2023/01/10 03:53:37;;;;;;;11.85;2.10;;;4.60;99.90;;;;;;6271759;22;20156;-85
2023/01/10 03:56:03;;;;;;;1.65;1.52;;;4.60;99.90;;;;;;6274264;22;20164;-86
2023/01/10 03:58:28;;;;;;;4.50;2.00;;;4.60;99.90;;;;;;6272020;22;20186;-85
2023/01/10 04:00:54;;;;;;;5.87;2.53;;;4.60;99.90;;;;;;6273064;22;20495;-85
2023/01/10 04:03:20;;;;;;;6.27;1.80;;;4.50;99.90;;;;;;6270669;22;20180;-87
2023/01/10 04:05:46;;;;;;;6.00;1.53;;;;;;;;;;6275519;22;20186;-86
2023/01/10 04:08:11;;;;;;;3.13;2.00;;;4.40;99.90;;;;;;6276499;22;20152;-86
2023/01/10 04:10:37;;;;;;;1.97;1.37;;;4.40;99.90;;;;;;6279446;22;20378;-84
2023/01/10 04:13:04;;;;;;;3.33;1.17;;;4.40;99.90;;;;;;6276655;22;20233;-89
2023/01/10 04:15:30;;;;;;;7.85;1.90;;;4.30;99.90;;;;;;6286814;22;20155;-89
2023/01/10 04:17:56;;;;;;;4.30;1.95;;;4.80;99.90;;;;;;6285597;22;20148;-88
2023/01/10 04:20:25;;;;;;;2.27;1.57;;;4.20;99.90;;;;;;6278220;22;20210;-88
2023/01/10 04:22:51;;;;;;;1.48;1.10;;;4.30;99.90;;;;;;6273151;22;20179;-89
2023/01/10 04:25:16;;;;;;;3.87;1.60;;;4.40;99.90;;;;;;6271604;22;20243;-88
2023/01/10 04:27:42;;;;;;;5.47;1.93;;;4.40;99.90;;;;;;6274447;22;20837;-87
2023/01/10 04:30:08;;;;;;;1.40;1.10;;;4.50;99.90;;;;;;6274507;22;20156;-87
2023/01/10 04:32:34;;;;;;;6.57;2.13;;;4.50;99.90;;;;;;6273116;22;20660;-87
2023/01/10 04:35:00;;;;;;;6.73;3.07;;;4.50;99.90;;;;;;6270949;22;20152;-87
2023/01/10 04:37:25;;;;;;;3.10;1.67;;;6.00;99.90;;;;;;6271979;22;20187;-87
2023/01/10 04:39:51;;;;;;;6.53;3.17;;;4.40;99.90;;;;;;6272747;22;20156;-87
2023/01/10 04:42:17;;;;;;;4.43;1.60;;;4.50;99.90;;;;;;6274581;22;20227;-87
2023/01/10 04:44:42;;;;;;;3.27;2.07;;;4.60;99.90;;;;;;6273725;22;20661;-87
2023/01/10 04:47:08;;;;;;;8.80;2.13;;;4.50;99.90;;;;;;6272535;22;20762;-87
2023/01/10 04:49:33;;;;;;;5.47;1.70;;;4.50;99.90;;;;;;6278366;22;20155;-87
2023/01/10 04:51:59;;;;;;;5.40;2.20;;;4.40;99.90;;;;;;6284552;22;20278;-86
2023/01/10 04:54:25;;;;;;;8.30;2.60;;;4.40;99.90;;;;;;6284111;22;20163;-88
2023/01/10 04:56:51;;;;;;;7.60;2.50;;;4.40;99.90;;;;;;6270128;22;20695;-86
2023/01/10 04:59:19;;;;;;;12.48;2.00;;;4.40;99.90;;;;;;6273924;22;20530;-87
2023/01/10 05:01:45;;;;;;;13.18;3.17;;;4.50;99.90;;;;;;6280848;22;20147;-87
2023/01/10 05:04:11;;;;;;;7.40;2.67;;;4.50;99.90;;;;;;6281414;22;20183;-87
2023/01/10 05:06:38;;;;;;;8.77;3.80;;;4.50;99.90;;;;;;6280984;22;20206;-88
2023/01/10 05:09:04;;;;;;;1.88;1.30;;;6.50;99.90;;;;;;6279614;22;20238;-87
2023/01/10 05:11:33;;;;;;;6.05;2.25;;;5.90;99.90;;;;;;6277989;22;20202;-87
2023/01/10 05:13:58;;;;;;;6.35;3.08;;;4.50;99.90;;;;;;6276031;22;20156;-88
2023/01/10 05:16:24;;;;;;;7.97;2.23;;;;;;;;;;6274333;22;20198;-87
2023/01/10 05:18:50;;;;;;;14.57;2.27;;;4.50;99.90;;;;;;6272962;22;20211;-88
2023/01/10 05:21:16;;;;;;;13.53;2.80;;;4.50;99.90;;;;;;6275405;22;20386;-88
2023/01/10 05:23:42;;;;;;;7.60;2.60;;;4.50;99.90;;;;;;6276557;22;20183;-88
2023/01/10 05:26:10;;;;;;;8.03;2.53;;;4.50;99.90;;;;;;6272628;22;20989;-86
2023/01/10 05:28:37;;;;;;;14.23;4.15;;;4.50;99.90;;;;;;6273658;22;20548;-86
2023/01/10 05:31:05;;;;;;;9.38;2.47;;;4.60;99.90;;;;;;6269946;22;20152;-86
2023/01/10 05:33:31;;;;;;;8.38;2.60;;;4.60;99.90;;;;;;6273166;22;20148;-87
2023/01/10 05:35:56;;;;;;;6.80;2.73;;;4.60;99.90;;;;;;6272691;22;20172;-86
2023/01/10 05:38:22;;;;;;;3.80;2.53;;;4.60;99.90;;;;;;6276816;22;20480;-87
2023/01/10 05:40:47;;;;;;;12.10;3.50;;;4.60;99.90;;;;;;6271952;22;20160;-85
2023/01/10 05:43:13;;;;;;;6.97;2.97;;;4.60;99.90;;;;;;6273264;22;20182;-87
2023/01/10 05:45:38;;;;;;;9.63;4.30;;;4.60;99.90;;;;;;6269187;22;20545;-87
2023/01/10 05:48:04;;;;;;;7.00;2.60;;;4.60;99.90;;;;;;6269525;22;20700;-86
2023/01/10 05:50:30;;;;;;;3.03;1.00;;;4.60;99.90;;;;;;6272192;22;20147;-84
2023/01/10 05:52:56;;;;;;;8.03;2.20;;;4.60;99.90;;;;;;6271425;22;20156;-85
2023/01/10 05:55:22;;;;;;;9.57;2.72;;;4.60;99.90;;;;;;6269794;22;20387;-86
2023/01/10 05:57:47;;;;;;;12.67;2.63;;;4.60;99.90;;;;;;6271436;22;20238;-85
2023/01/10 06:00:14;;;;;;;10.37;4.00;;;4.60;99.90;;;;;;6267981;22;20205;-87
2023/01/10 06:02:39;;;;;;;12.80;3.40;;;4.60;99.90;;;;;;6268722;22;20270;-86
2023/01/10 06:05:05;;;;;;;9.03;2.80;;;4.60;99.90;;;;;;6266219;22;20179;-86
2023/01/10 06:07:31;;;;;;;9.70;2.50;;;4.60;99.90;;;;;;6269167;22;20634;-87
2023/01/10 06:09:56;;;;;;;6.23;2.63;;;4.60;99.90;;;;;;6264894;22;20940;-87
2023/01/10 06:12:22;;;;;;;8.77;2.80;;;4.50;99.90;;;;;;6268404;22;20158;-88
2023/01/10 06:14:47;;;;;;;6.50;2.63;;;4.50;99.90;;;;;;6270183;22;20612;-87
2023/01/10 06:17:13;;;;;;;11.70;3.77;;;4.40;99.90;;;;;;6273154;22;20176;-87
2023/01/10 06:19:38;;;;;;;5.03;2.17;;;4.40;99.90;;;;;;6273788;22;20530;-86
2023/01/10 06:22:04;;;;;;;12.57;2.80;;;4.40;99.90;;;;;;6272280;22;20611;-86
2023/01/10 06:24:29;;;;;;;14.37;3.60;;;4.20;99.90;;;;;;6274659;22;20132;-88
2023/01/10 06:26:55;;;;;;;12.40;3.00;;;4.40;99.90;;;;;;6271169;22;20175;-87
2023/01/10 06:29:20;;;;;;;9.43;2.87;;;;;;;;;;6276425;22;20359;-86
2023/01/10 06:31:46;;;;;;;10.83;2.77;;;4.30;99.90;;;;;;6278728;22;20155;-85
2023/01/10 06:34:12;;;;;;;13.37;3.37;;;5.20;99.90;;;;;;6264428;22;20389;-87
2023/01/10 06:36:37;;;;;;;7.10;3.00;;;6.10;99.90;;;;;;6267844;22;20183;-86
2023/01/10 06:39:05;;;;;;;16.63;2.70;;;4.30;99.90;;;;;;6271747;22;20183;-86
2023/01/10 06:41:31;;;;;;;16.25;3.13;;;4.50;99.90;;;;;;6273134;22;20143;-86
2023/01/10 06:43:56;;;;;;;9.70;2.30;;;4.50;99.90;;;;;;6278250;22;20212;-87
2023/01/10 06:46:22;;;;;;;6.03;2.20;;;4.50;99.90;;;;;;6275839;22;20225;-87
2023/01/10 06:48:47;;;;;;;8.07;2.17;;;4.60;99.90;;;;;;6272277;22;20152;-87
2023/01/10 06:51:14;;;;;;;13.43;2.63;;;4.60;99.90;;;;;;6263317;22;20582;-87
2023/01/10 06:53:41;;;;;;;8.25;2.60;;;4.60;99.90;;;;;;6266939;22;20159;-86
2023/01/10 06:56:08;;;;;;;11.68;2.15;;;4.60;99.90;;;;;;6268283;22;20549;-86
2023/01/10 06:58:34;;;;;;;19.05;3.55;;;4.60;99.90;;;;;;6268078;22;20156;-87
2023/01/10 07:01:00;;;;;;;8.23;2.28;;;4.60;99.90;;;;;;6264047;22;20182;-85
2023/01/10 07:03:25;;;;;;;18.30;4.00;;;4.60;99.90;;;;;;6265720;22;20537;-87
2023/01/10 07:05:51;;;;;;;9.30;1.63;;;4.70;99.90;;;;;;6267255;22;20182;-88
2023/01/10 07:08:17;;;;;;;15.83;2.70;;;4.60;99.90;;;;;;6266326;22;20144;-87
2023/01/10 07:10:43;;;;;;;8.47;1.53;;;4.60;99.90;;;;;;6267815;22;20147;-85
2023/01/10 07:13:09;;;;;;;15.55;2.45;;;4.60;99.90;;;;;;6262758;22;20155;-86
2023/01/10 07:15:35;;;;;;;5.67;2.20;;;4.60;99.90;;;;;;6266128;22;20182;-87
2023/01/10 07:18:01;;;;;;;15.87;2.20;;;4.60;99.90;;;;;;6263994;22;20366;-86
2023/01/10 07:20:27;;;;;;;7.82;2.75;;;4.60;99.90;;;;;;6266157;22;20385;-86
2023/01/10 07:22:57;;;;;;;14.13;3.00;;;4.70;99.90;;;;;;6266666;22;20185;-87
2023/01/10 07:25:24;;;;;;;9.63;2.50;;;4.70;99.90;;;;;;6261619;22;20378;-86
2023/01/10 07:27:49;;;;;;;21.98;2.58;;;4.70;99.90;;;;;;6267410;22;20183;-87
2023/01/10 07:30:15;;;;;;;6.30;2.10;;;4.70;99.90;;;;;;6268239;22;20614;-86
2023/01/10 07:32:41;;;;;;;17.73;3.40;;;5.20;99.90;;;;;;6263842;22;20156;-87
2023/01/10 07:35:06;;;;;;;3.73;1.90;;;4.70;99.90;;;;;;6263460;22;20378;-85
2023/01/10 07:37:33;;;;;;;12.70;1.80;;;4.70;99.90;;;;;;6264263;22;20249;-85
2023/01/10 07:39:58;;;;;;;21.23;2.85;;;4.80;99.90;;;;;;6265086;22;20382;-86
2023/01/10 07:42:24;;;;;;;10.40;2.47;;;4.80;99.90;;;;;;6270228;22;20174;-86
2023/01/10 07:44:49;;;;;;;12.17;4.70;;;4.80;99.90;;;;;;6269222;22;20546;-88
2023/01/10 07:47:15;;;;;;;7.67;2.23;;;4.80;99.90;;;;;;6271324;22;20179;-86
2023/01/10 07:49:40;;;;;;;15.23;2.60;;;4.80;99.90;;;;;;6267717;22;20148;-87
2023/01/10 07:52:07;;;;;;;15.83;4.37;;;4.80;99.90;;;;;;6266748;22;20155;-85
2023/01/10 07:54:34;;;;;;;8.35;3.03;;;4.80;99.90;;;;;;6267430;22;20346;-86
2023/01/10 07:56:59;;;;;;;14.80;3.10;;;4.80;99.90;;;;;;6270109;22;20600;-86
2023/01/10 07:59:25;;;;;;;9.33;2.37;;;4.80;99.90;;;;;;6268274;22;20262;-86
2023/01/10 08:01:50;;;;;;;12.23;2.57;;;4.50;99.90;;;;;;6267377;22;20147;-85
2023/01/10 08:04:16;;;;;;;22.57;2.87;;;4.80;99.90;;;;;;6263472;22;20179;-86
2023/01/10 08:06:41;;;;;;;10.80;2.73;;;4.80;99.90;;;;;;6265525;22;20175;-87
2023/01/10 08:09:07;;;;;;;29.80;2.90;;;4.90;99.90;;;;;;6268876;22;20181;-87
2023/01/10 08:11:32;;;;;;;14.33;2.80;;;4.80;99.90;;;;;;6266056;22;20152;-86
2023/01/10 08:13:58;;;;;;;3.80;2.10;;;4.90;99.90;;;;;;6270569;22;20271;-84
2023/01/10 08:16:23;;;;;;;20.20;2.57;;;4.90;99.90;;;;;;6270072;22;20176;-86
2023/01/10 08:18:49;;;;;;;14.83;4.20;;;4.90;99.90;;;;;;6272464;22;20652;-85
2023/01/10 08:21:15;;;;;;;11.00;2.70;;;;;;;;;;6269821;22;20672;-85
2023/01/10 08:23:40;;;;;;;5.07;1.77;;;5.00;99.90;;;;;;6268964;22;20178;-85
2023/01/10 08:26:06;;;;;;;7.00;2.40;;;4.90;99.90;;;;;;6269511;22;20390;-86
2023/01/10 08:28:32;;;;;;;12.30;2.80;;;5.10;99.90;;;;;;6269861;22;20175;-85
2023/01/10 08:30:57;;;;;;;8.57;3.43;;;5.10;99.90;;;;;;6268997;22;20209;-85
2023/01/10 08:33:24;;;;;;;9.50;2.73;;;5.00;99.90;;;;;;6269781;22;20162;-87
2023/01/10 08:35:50;;;;;;;4.47;1.98;;;5.30;99.90;;;;;;6268087;22;20634;-85
2023/01/10 08:38:16;;;;;;;12.18;3.47;;;5.10;99.90;;;;;;6268036;22;20594;-87
2023/01/10 08:40:41;;;;;;;25.73;4.07;;;5.20;99.90;;;;;;6273737;22;20217;-84
2023/01/10 08:43:11;;;;;;;6.40;2.43;;;5.20;99.90;;;;;;6276313;22;20172;-83
2023/01/10 08:45:37;;;;;;;4.95;1.92;;;5.10;99.90;;;;;;6278141;22;20164;-83
2023/01/10 08:48:04;;;;;;;17.10;2.47;;;5.20;99.90;;;;;;6278487;22;20672;-84
2023/01/10 08:50:30;;;;;;;11.52;2.38;;;5.20;99.90;;;;;;6275466;22;20253;-84
2023/01/10 08:52:59;;;;;;;17.10;3.70;;;5.30;99.90;;;;;;6276278;22;20156;-84
2023/01/10 08:55:26;;;;;;;10.63;2.58;;;5.30;99.90;;;;;;6276871;22;20302;-83
2023/01/10 08:57:51;;;;;;;19.73;2.90;;;5.30;99.90;;;;;;6276733;22;20175;-84
2023/01/10 09:00:17;;;;;;;12.00;3.50;;;5.30;99.90;;;;;;6276168;22;20175;-84
2023/01/10 09:02:43;;;;;;;9.90;2.92;;;5.50;99.90;;;;;;6275456;22;20176;-84
2023/01/10 09:05:09;;;;;;;9.83;3.07;;;5.60;99.90;;;;;;6277293;22;20221;-84
2023/01/10 09:07:34;;;;;;;3.90;2.73;;;5.60;99.90;;;;;;6277044;22;20160;-84
2023/01/10 09:10:00;;;;;;;6.33;3.00;;;5.50;99.90;;;;;;6274432;22;20159;-83
2023/01/10 09:15:10;;;;;;;12.50;2.63;;;5.90;99.90;;;;;;6276735;22;20821;-85
2023/01/10 09:17:36;;;;;;;10.67;3.50;;;6.10;99.90;;;;;;6274176;22;20207;-85
2023/01/10 09:20:05;;;;;;;10.77;4.00;;;6.20;99.90;;;;;;6274273;22;20203;-83
2023/01/10 09:22:31;;;;;;;12.23;2.95;;;6.20;99.90;;;;;;6273971;22;20207;-84
2023/01/10 09:24:56;;;;;;;9.10;2.50;;;6.30;99.90;;;;;;6276465;22;20148;-83
2023/01/10 09:27:22;;;;;;;13.70;3.70;;;6.20;99.90;;;;;;6275135;22;20924;-84
2023/01/10 09:29:48;;;;;;;8.97;3.23;;;6.00;99.90;;;;;;6276745;22;20139;-84
2023/01/10 09:32:13;;;;;;;11.20;4.47;;;5.80;99.90;;;;;;6275394;22;20158;-84
2023/01/10 09:34:39;;;;;;;16.67;2.90;;;5.70;99.90;;;;;;6274982;22;20187;-84
2023/01/10 09:37:04;;;;;;;10.77;3.37;;;5.70;99.90;;;;;;6275059;22;20448;-84
2023/01/10 09:39:31;;;;;;;11.57;3.00;;;5.70;99.90;;;;;;6274395;22;20148;-84
2023/01/10 09:42:45;;;;;;;16.63;3.45;;;5.70;99.90;;;;;;6277879;22;20151;-83
2023/01/10 09:45:19;;;;;;;8.00;3.08;;;5.70;99.90;;;;;;6192378;22;20158;-84
2023/01/10 09:47:50;;;;;;;10.27;3.13;;;5.60;99.90;;;;;;6277045;22;20484;-84
2023/01/10 09:50:53;;;;;;;15.70;2.97;;;5.60;99.90;;;;;;6277496;22;20140;-83
2023/01/10 09:53:24;;;;;;;12.18;4.28;;;5.70;99.90;;;;;;6280373;22;20198;-84
2023/01/10 09:55:55;;;;;;;7.68;4.28;;;5.90;99.90;;;;;;6280378;22;20176;-84
2023/01/10 09:58:27;;;;;;;10.13;3.40;;;5.80;99.90;;;;;;6281586;22;20129;-84
2023/01/10 10:01:09;;;;;;;7.72;3.00;;;6.00;99.90;;;;;;6281501;22;20159;-84
2023/01/10 10:04:01;;;;;;;17.25;3.97;;;6.20;99.90;;;;;;6286289;22;20199;-84
2023/01/10 10:06:27;;;;;;;10.70;3.00;;;6.20;99.90;;;;;;6284234;22;20168;-84
2023/01/10 10:08:52;;;;;;;6.90;2.37;;;6.20;99.90;;;;;;6284360;22;20235;-83
2023/01/10 10:11:48;;;;;;;12.10;3.23;;;6.30;99.90;;;;;;6285101;22;20227;-84
2023/01/10 10:14:37;;;;;;;9.88;2.55;;;6.40;99.90;;;;;;6258624;22;20713;-84
2023/01/10 10:17:53;;;;;;;12.35;2.10;;;6.40;99.90;;;;;;6283084;22;20167;-83
2023/01/10 10:20:37;;;;;;;7.35;2.00;;;6.70;99.90;;;;;;6135181;23;20158;-84
2023/01/10 10:23:28;;;;;;;3.05;1.80;;;6.80;99.90;;;;;;6160130;23;20154;-83
2023/01/10 10:26:16;;;;;;;4.95;2.03;;;6.50;99.90;;;;;;6256096;22;20169;-84
2023/01/10 10:29:19;;;;;;;7.72;2.10;;;6.30;99.90;;;;;;6284348;22;20611;-84
2023/01/10 10:32:07;;;;;;;14.77;1.95;;;6.30;99.90;;;;;;6281009;22;20152;-83
2023/01/10 10:34:43;;;;;;;6.75;2.17;;;6.20;99.90;;;;;;6281988;22;20131;-84
2023/01/10 10:37:23;;;;;;;12.85;1.83;;;6.30;99.90;;;;;;6278683;22;20175;-84
2023/01/10 10:40:24;;;;;;;11.55;2.00;;;6.30;99.90;;;;;;6281901;22;20143;-84
2023/01/10 10:42:53;;;;;;;12.10;2.55;;;6.40;99.90;;;;;;6279188;22;20273;-84
2023/01/10 10:45:35;;;;;;;7.95;2.25;;;6.70;99.90;;;;;;6278916;22;20151;-83
2023/01/10 10:48:16;;;;;;;20.88;3.25;;;6.70;99.90;;;;;;6281009;22;20169;-84
2023/01/10 10:51:03;;;;;;;8.52;2.75;;;6.70;99.90;;;;;;6278317;22;20175;-84
2023/01/10 10:53:31;;;;;;;7.32;1.75;;;6.60;99.90;;;;;;6278507;22;20191;-84
2023/01/10 10:55:58;;;;;;;9.32;2.28;;;6.50;99.90;;;;;;6280673;22;20175;-84
2023/01/10 10:58:24;;;;;;;10.93;2.90;;;6.60;99.90;;;;;;6280101;22;20231;-84
2023/01/10 11:00:51;;;;;;;6.72;1.73;;;6.60;99.90;;;;;;6279976;22;20212;-84
2023/01/10 11:03:41;;;;;;;10.63;1.80;;;6.70;99.90;;;;;;6278458;22;20250;-84
2023/01/10 11:06:08;;;;;;;8.52;1.67;;;6.60;99.90;;;;;;6279843;22;20172;-85
2023/01/10 11:08:41;;;;;;;9.98;1.70;;;6.60;99.90;;;;;;6279969;22;20150;-84
2023/01/10 11:11:25;;;;;;;6.88;2.05;;;6.60;99.90;;;;;;6280922;22;20124;-84
2023/01/10 11:13:58;;;;;;;5.30;1.60;;;6.70;99.90;;;;;;6279400;22;20144;-84
2023/01/10 11:16:29;;;;;;;7.05;2.22;;;6.80;99.90;;;;;;6283262;22;20170;-84
2023/01/10 11:19:18;;;;;;;16.70;1.98;;;7.10;99.90;;;;;;6280899;22;20397;-82
2023/01/10 11:21:52;;;;;;;12.93;2.47;;;7.10;99.90;;;;;;6279201;22;20167;-84
2023/01/10 11:24:24;;;;;;;9.05;2.88;;;7.20;99.90;;;;;;6279658;22;20198;-84
2023/01/10 11:26:51;;;;;;;16.35;2.67;;;8.40;99.90;;;;;;6279371;22;20167;-84
2023/01/10 11:29:46;;;;;;;10.10;2.75;;;7.30;99.90;;;;;;6282239;22;20140;-84
2023/01/10 11:32:15;;;;;;;6.80;2.05;;;7.20;99.90;;;;;;6279644;22;20446;-83
2023/01/10 11:35:19;;;;;;;5.72;1.80;;;6.90;99.90;;;;;;6278730;22;20155;-82
2023/01/10 11:38:12;;;;;;;17.60;2.03;;;6.50;99.90;;;;;;6217351;22;20246;-85
2023/01/10 11:40:38;;;;;;;7.60;1.40;;;6.20;99.90;;;;;;6276522;22;20144;-85
2023/01/10 11:43:25;;;;;;;5.30;1.40;;;6.00;99.90;;;;;;6275312;22;20180;-85
2023/01/10 11:45:57;;;;;;;4.90;1.50;;;6.00;99.90;;;;;;6274115;22;20171;-85
2023/01/10 11:48:25;;;;;;;8.10;1.65;;;6.00;99.90;;;;;;6273904;22;20171;-85
2023/01/10 11:50:53;;;;;;;5.93;1.30;;;6.00;99.90;;;;;;6274478;22;20151;-86
2023/01/10 11:53:37;;;;;;;10.02;1.92;;;6.10;99.90;;;;;;6276853;22;20234;-85
2023/01/10 11:56:03;;;;;;;4.65;1.83;;;6.10;99.90;;;;;;6275587;22;20168;-84
2023/01/10 11:58:35;;;;;;;14.60;2.13;;;6.20;99.90;;;;;;6273802;22;20822;-85
2023/01/10 12:01:01;;;;;;;9.35;2.05;;;6.20;99.90;;;;;;6276324;22;20136;-86
2023/01/10 12:03:35;;;;;;;7.10;1.67;;;6.30;99.90;;;;;;6274894;22;20183;-85
2023/01/10 12:06:13;;;;;;;7.75;1.77;;;6.00;99.90;;;;;;6274517;22;20171;-84
2023/01/10 12:08:41;;;;;;;6.38;2.42;;;5.90;99.90;;;;;;6275724;22;20159;-85
2023/01/10 12:11:26;;;;;;;7.60;1.70;;;5.90;99.90;;;;;;6279583;22;20151;-85
2023/01/10 12:13:54;;;;;;;7.85;1.83;;;6.00;99.90;;;;;;6284732;22;20158;-85
2023/01/10 12:16:31;;;;;;;5.85;1.30;;;6.20;99.90;;;;;;6287007;22;20186;-85
2023/01/10 12:19:06;;;;;;;8.38;2.13;;;6.50;99.90;;;;;;6288180;22;20464;-84
2023/01/10 12:21:40;;;;;;;6.85;1.80;;;6.50;99.90;;;;;;6278801;22;20147;-84
2023/01/10 12:24:25;;;;;;;13.07;2.25;;;6.70;99.90;;;;;;6278921;22;20183;-85
2023/01/10 12:26:52;;;;;;;3.95;1.25;;;6.70;99.90;;;;;;6280304;22;20697;-85
2023/01/10 12:29:28;;;;;;;13.65;2.03;;;6.70;99.90;;;;;;6277733;22;20653;-85
2023/01/10 12:31:57;;;;;;;6.22;2.60;;;6.70;99.90;;;;;;6279385;22;20195;-85
2023/01/10 12:34:26;;;;;;;4.95;1.80;;;7.00;99.90;;;;;;6276780;22;20242;-85
2023/01/10 12:37:13;;;;;;;13.60;2.10;;;6.90;99.90;;;;;;6279692;22;20193;-85
2023/01/10 12:39:43;;;;;;;3.85;1.55;;;6.80;99.90;;;;;;6277055;22;20159;-85
2023/01/10 12:45:13;;;;;;;9.40;1.98;;;6.80;99.90;;;;;;6279440;22;20200;-85
2023/01/10 12:48:13;;;;;;;5.05;1.58;;;6.90;99.90;;;;;;6276638;22;20195;-85
2023/01/10 12:50:53;;;;;;;8.25;2.42;;;6.90;99.90;;;;;;6276970;22;20710;-85
2023/01/10 12:53:28;;;;;;;7.65;2.42;;;7.10;99.90;;;;;;6279165;22;20235;-85
2023/01/10 12:55:57;;;;;;;5.25;1.55;;;7.00;99.90;;;;;;6281056;22;20199;-85
2023/01/10 12:58:59;;;;;;;14.63;1.52;;;7.30;99.90;;;;;;6281552;22;20491;-85
2023/01/10 13:01:34;;;;;;;10.07;1.70;;;7.30;99.90;;;;;;6282873;22;20144;-85
2023/01/10 13:04:10;;;;;;;8.18;1.52;;;7.40;99.90;;;;;;6283418;22;20175;-85
2023/01/10 13:06:42;;;;;;;7.78;1.65;;;7.60;99.90;;;;;;6281490;22;20164;-86
2023/01/10 13:09:15;;;;;;;10.50;2.00;;;7.60;99.90;;;;;;6281302;22;20178;-85
2023/01/10 13:12:15;;;;;;;6.50;2.10;;;8.60;99.90;;;;;;6281366;22;20556;-85
2023/01/10 13:15:03;;;;;;;6.65;1.98;;;7.70;99.90;;;;;;6281625;22;20239;-85
2023/01/10 13:17:36;;;;;;;5.28;1.52;;;7.70;99.90;;;;;;6282255;22;20503;-82
2023/01/10 13:20:20;;;;;;;13.52;2.97;;;7.80;99.90;;;;;;6280970;22;20148;-85
2023/01/10 13:22:57;;;;;;;4.95;1.52;;;8.10;99.90;;;;;;6280265;22;20183;-85
2023/01/10 13:25:34;;;;;;;14.73;1.92;;;8.30;99.90;;;;;;6280699;22;20205;-83
2023/01/10 13:28:15;;;;;;;12.38;1.73;;;8.10;99.90;;;;;;6281699;22;20140;-84
2023/01/10 13:30:41;;;;;;;7.35;2.20;;;7.90;99.90;;;;;;6280535;22;20226;-84
2023/01/10 13:33:13;;;;;;;5.47;1.90;;;8.00;99.90;;;;;;6280500;22;20152;-84